Time;durP1;ratioP1;P1;durP2;ratioP2;P2;SDS_P1;SDS_P2;PMS_P1;PMS_P2;Temp;Humidity;BMP_temperature;BMP_pressure;BME280_temperature;BME280_humidity;BME280_pressure;Samples;Min_cycle;Max_cycle;Signal;HPM_P1;HPM_P2
2023/12/16 00:02:16;;;;;;;13.07;7.47;;;;;;;6.03;100.00;100443.59;5055145;28;20242;-80
2023/12/16 00:04:44;;;;;;;11.00;7.10;;;;;;;6.05;100.00;100439.16;5054298;28;20222;-80
2023/12/16 00:07:10;;;;;;;11.93;7.40;;;;;;;6.05;100.00;100449.66;5056168;28;20567;-80
2023/12/16 00:09:37;;;;;;;10.90;7.80;;;;;;;6.03;100.00;100435.69;5055210;28;20723;-80
2023/12/16 00:12:05;;;;;;;12.93;7.90;;;;;;;6.04;100.00;100434.81;5055485;28;20281;-80
2023/12/16 00:14:35;;;;;;;10.00;7.67;;;;;;;6.10;100.00;100442.59;5054817;28;20208;-80
2023/12/16 00:17:01;;;;;;;10.60;7.07;;;;;;;6.05;100.00;100436.53;5055012;28;20559;-80
2023/12/16 00:19:28;;;;;;;10.67;7.53;;;;;;;6.00;100.00;100430.50;5055091;28;20227;-80
2023/12/16 00:21:56;;;;;;;10.47;7.37;;;;;;;5.99;100.00;100428.75;5055654;28;20238;-80
2023/12/16 00:24:22;;;;;;;9.93;7.17;;;;;;;6.03;100.00;100430.47;5055390;28;20333;-80
2023/12/16 00:26:49;;;;;;;10.60;7.60;;;;;;;5.97;100.00;100435.78;5055144;28;20221;-80
2023/12/16 00:29:15;;;;;;;12.50;7.83;;;;;;;5.94;100.00;100422.72;5055629;28;20702;-80
2023/12/16 00:31:42;;;;;;;11.77;7.50;;;;;;;6.00;100.00;100424.38;5054725;28;20230;-81
2023/12/16 00:34:09;;;;;;;11.40;7.73;;;;;;;6.02;100.00;100428.72;5054780;28;20214;-80
2023/12/16 00:36:35;;;;;;;14.03;7.00;;;;;;;5.93;100.00;100426.22;5053918;28;20218;-80
2023/12/16 00:39:03;;;;;;;9.20;7.17;;;;;;;5.97;100.00;100430.53;5054024;28;20213;-80
2023/12/16 00:41:30;;;;;;;12.47;7.50;;;;;;;5.93;100.00;100426.22;5054631;28;20232;-80
2023/12/16 00:43:57;;;;;;;11.50;7.63;;;;;;;5.97;100.00;100437.53;5054242;28;20211;-80
2023/12/16 00:46:23;;;;;;;10.10;7.13;;;;;;;6.00;100.00;100435.78;5054230;28;20215;-82
2023/12/16 00:48:49;;;;;;;12.00;8.03;;;;;;;6.05;100.00;100436.53;5054624;28;20601;-82
2023/12/16 00:51:16;;;;;;;11.50;7.40;;;;;;;6.13;100.00;100437.31;5054569;28;20227;-81
2023/12/16 00:53:42;;;;;;;10.60;7.03;;;;;;;6.11;100.00;100454.81;5054371;28;20218;-81
2023/12/16 00:56:10;;;;;;;9.30;6.57;;;;;;;6.10;100.00;100453.09;5053717;28;20211;-82
2023/12/16 00:58:37;;;;;;;10.70;7.20;;;;;;;6.10;100.00;100460.97;5054097;28;20211;-82
2023/12/16 01:01:04;;;;;;;12.60;7.63;;;;;;;6.04;100.00;100458.44;5054550;28;20246;-81
2023/12/16 01:03:30;;;;;;;9.50;7.47;;;;;;;6.09;100.00;100467.13;5054621;28;20224;-81
2023/12/16 01:05:57;;;;;;;11.70;7.40;;;;;;;6.05;100.00;100465.41;5054556;28;20223;-82
2023/12/16 01:08:23;;;;;;;10.07;7.20;;;;;;;6.04;100.00;100474.19;5054564;28;20204;-80
2023/12/16 01:10:50;;;;;;;10.87;7.67;;;;;;;6.00;100.00;100480.38;5054459;28;20231;-80
2023/12/16 01:13:17;;;;;;;12.00;7.10;;;;;;;5.98;100.00;100483.94;5054387;28;20211;-80
2023/12/16 01:15:44;;;;;;;12.13;7.00;;;;;;;5.96;100.00;100483.06;5053755;28;20218;-80
2023/12/16 01:18:10;;;;;;;11.03;7.77;;;;;;;5.94;100.00;100483.09;5054470;28;20211;-79
2023/12/16 01:20:37;;;;;;;10.37;7.87;;;;;;;5.91;100.00;100483.13;5054570;28;20302;-80
2023/12/16 01:23:03;;;;;;;9.80;6.73;;;;;;;5.88;100.00;100472.69;5054562;28;20606;-80
2023/12/16 01:25:30;;;;;;;9.87;7.40;;;;;;;5.86;100.00;100479.69;5053569;28;20231;-80
2023/12/16 01:27:56;;;;;;;11.07;7.67;;;;;;;5.82;100.00;100475.38;5056639;28;20206;-80
2023/12/16 01:30:25;;;;;;;11.70;7.63;;;;;;;5.85;100.00;100487.56;5059037;28;20232;-82
2023/12/16 01:32:51;;;;;;;10.83;7.20;;;;;;;5.84;100.00;100486.72;5058217;28;20224;-80
2023/12/16 01:35:18;;;;;;;10.43;7.57;;;;;;;5.88;100.00;100485.81;5059139;28;20211;-80
2023/12/16 01:37:44;;;;;;;11.10;6.97;;;;;;;5.86;100.00;100479.69;5057887;28;20274;-79
2023/12/16 01:40:12;;;;;;;11.80;8.30;;;;;;;5.82;100.00;100472.75;5059095;28;20203;-81
2023/12/16 01:42:38;;;;;;;11.67;7.90;;;;;;;5.82;100.00;100477.13;5059382;28;20256;-80
2023/12/16 01:45:06;;;;;;;11.53;7.93;;;;;;;5.82;100.00;100471.88;5057586;28;20215;-82
2023/12/16 01:47:35;;;;;;;10.67;7.27;;;;;;;5.82;100.00;100467.50;5058684;28;20207;-82
2023/12/16 01:50:01;;;;;;;10.73;7.97;;;;;;;5.80;100.00;100468.41;5059002;28;20229;-80
2023/12/16 01:52:28;;;;;;;12.43;8.30;;;;;;;5.82;100.00;100464.00;5058636;28;20239;-80
2023/12/16 01:54:54;;;;;;;11.60;7.83;;;;;;;5.90;100.00;100455.16;5058027;28;20207;-80
2023/12/16 01:57:21;;;;;;;12.10;7.83;;;;;;;5.86;100.00;100466.56;5058358;28;20216;-80
2023/12/16 01:59:48;;;;;;;14.00;8.23;;;;;;;5.79;100.00;100475.38;5057598;28;20211;-80
2023/12/16 02:02:15;;;;;;;11.57;7.87;;;;;;;5.79;100.00;100472.75;5058070;28;20729;-80
2023/12/16 02:04:43;;;;;;;13.30;9.30;;;;;;;5.81;100.00;100475.41;5057400;28;20262;-80
2023/12/16 02:07:09;;;;;;;13.07;8.63;;;;;;;5.86;100.00;100479.69;5058001;28;20693;-80
2023/12/16 02:09:36;;;;;;;10.60;7.70;;;;;;;5.85;100.00;100472.72;5057289;28;20231;-80
2023/12/16 02:12:03;;;;;;;13.10;8.67;;;;;;;5.83;100.00;100466.63;5057295;28;20262;-80
2023/12/16 02:14:29;;;;;;;12.17;7.97;;;;;;;5.85;100.00;100475.34;5056391;28;20210;-80
2023/12/16 02:16:56;;;;;;;13.67;8.40;;;;;;;5.92;100.00;100474.34;5057518;28;20221;-80
2023/12/16 02:19:26;;;;;;;10.70;7.83;;;;;;;5.85;100.00;100477.97;5057295;28;20208;-80
2023/12/16 02:21:53;;;;;;;10.53;7.87;;;;;;;5.79;100.00;100483.25;5057529;28;20231;-80
2023/12/16 02:24:22;;;;;;;12.07;8.57;;;;;;;5.76;100.00;100477.19;5057331;28;20215;-80
2023/12/16 02:26:48;;;;;;;11.57;7.93;;;;;;;5.77;100.00;100485.03;5056944;28;20224;-80
2023/12/16 02:29:15;;;;;;;11.63;8.33;;;;;;;5.68;100.00;100485.13;5056427;28;20239;-80
2023/12/16 02:31:41;;;;;;;11.53;8.40;;;;;;;5.66;100.00;100496.53;5056313;28;20230;-80
2023/12/16 02:34:08;;;;;;;12.67;7.93;;;;;;;5.64;100.00;100499.19;5056666;28;20212;-81
2023/12/16 02:36:35;;;;;;;12.23;8.40;;;;;;;5.62;100.00;100493.09;5056909;28;20225;-81
2023/12/16 02:39:01;;;;;;;13.20;8.80;;;;;;;5.62;100.00;100495.72;5056713;28;20682;-81
2023/12/16 02:41:29;;;;;;;13.00;8.73;;;;;;;5.60;100.00;100494.88;5056959;28;20758;-81
2023/12/16 02:43:56;;;;;;;12.77;9.57;;;;;;;5.60;100.00;100497.50;5057375;28;20215;-81
2023/12/16 02:46:24;;;;;;;12.73;8.97;;;;;;;5.61;100.00;100493.97;5057075;28;20213;-81
2023/12/16 02:48:50;;;;;;;15.27;10.07;;;;;;;5.61;100.00;100487.88;5057454;28;20214;-81
2023/12/16 02:51:18;;;;;;;15.07;9.97;;;;;;;5.62;100.00;100487.00;5056167;28;20261;-81
2023/12/16 02:53:45;;;;;;;17.83;11.13;;;;;;;5.62;100.00;100484.38;5056484;28;20226;-81
2023/12/16 02:56:11;;;;;;;14.93;9.57;;;;;;;5.66;100.00;100478.16;5056060;28;20238;-81
2023/12/16 02:58:40;;;;;;;16.97;10.90;;;;;;;5.64;100.00;100483.47;5056569;28;20214;-81
2023/12/16 03:01:07;;;;;;;15.20;10.33;;;;;;;5.64;100.00;100487.81;5056475;28;20247;-81
2023/12/16 03:03:33;;;;;;;15.33;10.03;;;;;;;5.65;100.00;100487.81;5056067;28;20687;-81
2023/12/16 03:06:04;;;;;;;17.67;10.50;;;;;;;5.64;100.00;100496.56;5055855;28;20524;-81
2023/12/16 03:08:31;;;;;;;16.37;10.37;;;;;;;5.65;100.00;100495.69;5054701;28;20586;-81
2023/12/16 03:10:57;;;;;;;14.93;9.73;;;;;;;5.69;100.00;100507.00;5054685;28;20231;-81
2023/12/16 03:13:24;;;;;;;14.07;9.67;;;;;;;5.68;100.00;100506.13;5054610;28;20220;-81
2023/12/16 03:15:52;;;;;;;13.23;9.23;;;;;;;5.73;100.00;100503.47;5054050;28;20800;-81
2023/12/16 03:18:18;;;;;;;13.93;10.27;;;;;;;5.81;100.00;100507.75;5054600;28;20215;-80
2023/12/16 03:20:45;;;;;;;13.63;9.53;;;;;;;5.74;100.00;100500.81;5054876;28;20233;-80
2023/12/16 03:23:11;;;;;;;14.40;8.90;;;;;;;5.74;100.00;100505.19;5054200;28;20204;-80
2023/12/16 03:25:38;;;;;;;13.27;9.67;;;;;;;5.71;100.00;100503.47;5054198;28;20221;-81
2023/12/16 03:28:05;;;;;;;15.00;9.33;;;;;;;5.69;100.00;100499.97;5054117;28;20245;-81
2023/12/16 03:30:31;;;;;;;12.57;8.77;;;;;;;5.68;100.00;100500.03;5054148;28;20564;-81
2023/12/16 03:32:59;;;;;;;12.00;9.03;;;;;;;5.68;100.00;100492.16;5054368;28;20242;-81
2023/12/16 03:35:25;;;;;;;15.07;9.90;;;;;;;5.66;100.00;100492.16;5054779;28;20227;-80
2023/12/16 03:37:52;;;;;;;14.27;9.53;;;;;;;5.66;100.00;100491.28;5055388;28;20244;-81
2023/12/16 03:40:18;;;;;;;13.43;10.07;;;;;;;5.81;100.00;100504.25;5054904;28;20211;-81
2023/12/16 03:42:45;;;;;;;14.97;10.13;;;;;;;5.79;100.00;100504.25;5055155;28;20267;-80
2023/12/16 03:45:11;;;;;;;12.50;9.20;;;;;;;5.84;100.00;100501.59;5054435;28;20222;-81
2023/12/16 03:47:38;;;;;;;12.90;9.00;;;;;;;5.82;100.00;100508.63;5055108;28;20207;-81
2023/12/16 03:50:06;;;;;;;14.20;9.57;;;;;;;5.82;100.00;100504.25;5053998;28;20559;-81
2023/12/16 03:52:33;;;;;;;13.20;9.03;;;;;;;5.85;100.00;100498.94;5054821;28;20239;-81
2023/12/16 03:54:59;;;;;;;12.97;9.07;;;;;;;5.83;100.00;100495.50;5054572;28;20222;-81
2023/12/16 03:57:29;;;;;;;14.03;8.80;;;;;;;5.83;100.00;100497.22;5054558;28;20219;-81
2023/12/16 03:59:56;;;;;;;12.37;8.90;;;;;;;5.84;100.00;100491.97;5054675;28;20265;-81
2023/12/16 04:02:22;;;;;;;14.00;9.27;;;;;;;5.80;100.00;100490.25;5054560;28;20238;-81
2023/12/16 04:04:49;;;;;;;12.87;9.40;;;;;;;5.78;100.00;100494.63;5054382;28;20204;-81
2023/12/16 04:07:17;;;;;;;14.37;9.73;;;;;;;5.88;100.00;100495.41;5054752;28;20221;-81
2023/12/16 04:09:44;;;;;;;14.50;9.50;;;;;;;5.88;100.00;100505.91;5054714;28;20219;-81
2023/12/16 04:12:11;;;;;;;12.87;8.77;;;;;;;5.83;100.00;100500.75;5054362;28;20228;-81
2023/12/16 04:14:38;;;;;;;10.93;8.67;;;;;;;5.84;100.00;100510.34;5054234;28;20265;-80
2023/12/16 04:17:04;;;;;;;13.93;9.27;;;;;;;5.89;100.00;100513.78;5054667;28;20706;-81
2023/12/16 04:19:31;;;;;;;13.03;8.30;;;;;;;5.86;100.00;100505.94;5055300;28;20208;-81
2023/12/16 04:21:58;;;;;;;14.17;9.03;;;;;;;5.96;100.00;100501.44;5054546;28;20718;-81
2023/12/16 04:24:26;;;;;;;10.80;8.20;;;;;;;5.92;100.00;100511.09;5054745;28;20222;-81
2023/12/16 04:26:52;;;;;;;13.27;9.07;;;;;;;5.90;100.00;100512.00;5054121;28;20222;-80
2023/12/16 04:29:19;;;;;;;12.23;8.40;;;;;;;5.92;100.00;100510.25;5055728;28;20219;-81
2023/12/16 04:31:46;;;;;;;11.90;8.97;;;;;;;5.94;100.00;100511.97;5055184;28;20236;-81
2023/12/16 04:34:12;;;;;;;11.10;8.60;;;;;;;5.94;100.00;100514.59;5053199;28;20667;-81
2023/12/16 04:36:39;;;;;;;11.73;8.07;;;;;;;5.91;100.00;100512.00;5052988;28;20594;-80
2023/12/16 04:39:07;;;;;;;14.57;9.33;;;;;;;5.92;100.00;100505.00;5053109;28;20571;-81
2023/12/16 04:41:35;;;;;;;11.30;8.20;;;;;;;5.88;100.00;100509.44;5053058;28;20227;-80
2023/12/16 04:44:02;;;;;;;12.47;8.50;;;;;;;5.89;100.00;100503.28;5054485;28;20211;-81
2023/12/16 04:46:28;;;;;;;11.70;7.83;;;;;;;5.86;100.00;100512.97;5055001;28;20219;-81
2023/12/16 04:48:54;;;;;;;11.83;8.20;;;;;;;5.83;100.00;100510.34;5055651;28;20211;-81
2023/12/16 04:51:21;;;;;;;9.27;7.00;;;;;;;5.84;100.00;100509.47;5055408;28;20235;-81
2023/12/16 04:53:48;;;;;;;10.17;7.13;;;;;;;5.82;100.00;100504.25;5055291;28;20210;-81
2023/12/16 04:56:14;;;;;;;9.40;6.57;;;;;;;5.81;100.00;100507.75;5054889;28;20210;-81
2023/12/16 04:58:42;;;;;;;8.87;6.30;;;;;;;5.77;100.00;100503.41;5055931;28;20211;-81
2023/12/16 05:01:09;;;;;;;9.97;6.83;;;;;;;5.80;100.00;100500.75;5055028;28;20227;-81
2023/12/16 05:03:35;;;;;;;9.83;6.07;;;;;;;5.74;100.00;100497.34;5054779;28;20219;-81
2023/12/16 05:06:02;;;;;;;9.47;6.27;;;;;;;5.64;100.00;100500.94;5053468;28;20216;-81
2023/12/16 05:08:28;;;;;;;10.57;5.77;;;;;;;5.63;100.00;100507.94;5053227;28;20214;-80
2023/12/16 05:10:55;;;;;;;10.13;6.43;;;;;;;5.54;100.00;100521.16;5053487;28;20606;-80
2023/12/16 05:13:21;;;;;;;8.43;6.03;;;;;;;5.55;100.00;100520.28;5053072;28;20341;-80
2023/12/16 05:15:50;;;;;;;8.40;5.70;;;;;;;5.48;100.00;100513.38;5052620;28;20215;-80
2023/12/16 05:18:17;;;;;;;8.80;6.37;;;;;;;5.48;100.00;100517.72;5052810;28;20218;-80
2023/12/16 05:20:43;;;;;;;8.13;5.80;;;;;;;5.42;100.00;100510.81;5052398;28;20203;-80
2023/12/16 05:23:10;;;;;;;9.83;6.30;;;;;;;5.50;100.00;100522.09;5053852;28;20208;-82
2023/12/16 05:25:37;;;;;;;6.67;4.97;;;;;;;5.50;100.00;100515.97;5053530;28;20212;-81
2023/12/16 05:28:03;;;;;;;7.90;6.07;;;;;;;5.48;100.00;100518.63;5054479;28;20210;-81
2023/12/16 05:30:30;;;;;;;9.10;5.83;;;;;;;5.46;100.00;100519.50;5054244;28;20545;-81
2023/12/16 05:32:58;;;;;;;6.57;5.30;;;;;;;5.44;100.00;100516.91;5053254;28;20602;-81
2023/12/16 05:35:24;;;;;;;6.10;4.57;;;;;;;5.47;100.00;100519.50;5052839;28;20223;-81
2023/12/16 05:37:51;;;;;;;9.53;5.43;;;;;;;5.42;100.00;100525.66;5054526;28;20222;-80
2023/12/16 05:40:17;;;;;;;6.43;5.10;;;;;;;5.37;100.00;100525.72;5054036;28;20208;-80
2023/12/16 05:42:44;;;;;;;8.43;5.23;;;;;;;5.40;100.00;100525.72;5053788;28;20234;-80
2023/12/16 05:45:10;;;;;;;7.93;5.70;;;;;;;5.42;100.00;100523.03;5053411;28;20214;-80
2023/12/16 05:47:37;;;;;;;7.63;4.67;;;;;;;5.36;100.00;100518.75;5054276;28;20211;-80
2023/12/16 05:50:08;;;;;;;6.60;5.07;;;;;;;5.37;100.00;100514.38;5053513;28;20214;-80
2023/12/16 05:52:35;;;;;;;8.17;5.30;;;;;;;5.36;100.00;100524.00;5053520;28;20605;-80
2023/12/16 05:55:02;;;;;;;7.63;4.93;;;;;;;5.30;100.00;100524.06;5053114;28;20211;-80
2023/12/16 05:57:28;;;;;;;7.87;4.90;;;;;;;5.31;100.00;100522.31;5053520;28;20215;-80
2023/12/16 05:59:55;;;;;;;6.50;4.73;;;;;;;5.33;100.00;100513.56;5053666;28;20222;-80
2023/12/16 06:02:21;;;;;;;7.23;5.00;;;;;;;5.36;100.00;100518.75;5053581;28;20238;-80
2023/12/16 06:04:48;;;;;;;7.10;4.23;;;;;;;5.33;100.00;100517.91;5053876;28;20219;-80
2023/12/16 06:07:15;;;;;;;6.60;5.00;;;;;;;5.30;100.00;100523.19;5054773;28;20215;-82
2023/12/16 06:09:42;;;;;;;7.67;4.87;;;;;;;5.27;100.00;100534.59;5054814;28;20218;-81
2023/12/16 06:12:08;;;;;;;7.47;5.33;;;;;;;5.35;100.00;100527.50;5054631;28;20243;-80
2023/12/16 06:14:35;;;;;;;8.63;4.87;;;;;;;5.33;100.00;100528.41;5057606;28;20217;-81
2023/12/16 06:17:02;;;;;;;5.37;4.23;;;;;;;5.35;100.00;100532.75;5057968;28;20207;-81
2023/12/16 06:19:28;;;;;;;5.83;4.50;;;;;;;5.32;100.00;100540.63;5058119;28;20215;-80
2023/12/16 06:21:55;;;;;;;6.40;4.40;;;;;;;5.31;100.00;100541.53;5058050;28;20226;-80
2023/12/16 06:24:22;;;;;;;6.80;4.63;;;;;;;5.30;100.00;100539.78;5057975;28;20259;-80
2023/12/16 06:26:49;;;;;;;6.60;4.30;;;;;;;5.29;100.00;100548.53;5056477;28;20220;-79
2023/12/16 06:29:15;;;;;;;6.23;4.43;;;;;;;5.31;100.00;100549.38;5055791;28;20229;-80
2023/12/16 06:31:42;;;;;;;7.03;4.90;;;;;;;5.27;100.00;100541.56;5055422;28;20237;-79
2023/12/16 06:34:08;;;;;;;6.43;4.63;;;;;;;5.25;100.00;100554.69;5055406;28;20216;-79
2023/12/16 06:36:35;;;;;;;6.00;4.33;;;;;;;5.21;100.00;100550.38;5054916;28;20204;-79
2023/12/16 06:39:03;;;;;;;8.03;4.80;;;;;;;5.17;100.00;100564.41;5058193;28;20235;-79
2023/12/16 06:41:32;;;;;;;7.63;4.87;;;;;;;5.14;100.00;100560.94;5065137;28;20250;-81
2023/12/16 06:43:59;;;;;;;6.10;4.53;;;;;;;5.14;100.00;100566.19;5068107;28;20216;-82
2023/12/16 06:46:25;;;;;;;5.77;4.60;;;;;;;5.12;100.00;100560.94;5067350;28;20215;-82
2023/12/16 06:48:52;;;;;;;6.77;5.10;;;;;;;5.14;100.00;100564.41;5060974;28;20736;-82
2023/12/16 06:51:18;;;;;;;8.10;4.57;;;;;;;5.09;100.00;100568.84;5056654;28;20698;-82
2023/12/16 06:53:45;;;;;;;6.53;4.70;;;;;;;5.12;100.00;100560.94;5055994;28;20211;-81
2023/12/16 06:56:12;;;;;;;6.57;4.30;;;;;;;5.10;100.00;100552.22;5055486;28;20665;-78
2023/12/16 06:58:40;;;;;;;8.07;4.43;;;;;;;5.10;100.00;100554.84;5054819;28;20233;-77
2023/12/16 07:01:09;;;;;;;6.27;4.70;;;;;;;5.07;100.00;100557.47;5053850;28;20305;-77
2023/12/16 07:03:36;;;;;;;6.47;4.47;;;;;;;5.08;100.00;100548.72;5053526;28;20222;-77
2023/12/16 07:06:04;;;;;;;5.77;4.20;;;;;;;5.05;100.00;100556.63;5055496;28;20638;-79
2023/12/16 07:08:30;;;;;;;8.37;4.60;;;;;;;5.09;100.00;100560.97;5055296;28;20210;-80
2023/12/16 07:10:57;;;;;;;7.87;4.67;;;;;;;5.09;100.00;100555.75;5054716;28;20253;-80
2023/12/16 07:13:23;;;;;;;6.40;4.73;;;;;;;5.04;100.00;100560.16;5054303;28;20217;-77
2023/12/16 07:15:52;;;;;;;6.93;4.60;;;;;;;5.01;100.00;100572.41;5066925;28;20217;-81
2023/12/16 07:18:18;;;;;;;6.37;4.40;;;;;;;5.04;100.00;100562.78;5074700;28;20210;-81
2023/12/16 07:20:45;;;;;;;5.77;4.33;;;;;;;5.05;100.00;100574.09;5074048;28;20218;-79
2023/12/16 07:23:11;;;;;;;6.53;4.67;;;;;;;5.07;100.00;100573.22;5074012;28;20209;-80
2023/12/16 07:25:38;;;;;;;7.13;4.97;;;;;;;5.09;100.00;100571.47;5074226;28;20215;-81
2023/12/16 07:28:04;;;;;;;7.37;4.77;;;;;;;5.12;100.00;100571.44;5075479;28;20214;-82
2023/12/16 07:30:32;;;;;;;7.07;4.70;;;;;;;5.13;100.00;100578.41;5075750;28;20206;-80
2023/12/16 07:33:00;;;;;;;6.57;4.83;;;;;;;5.10;100.00;100570.56;5077259;28;20237;-80
2023/12/16 07:35:26;;;;;;;7.20;4.30;;;;;;;5.07;100.00;100567.97;5076555;28;20211;-79
2023/12/16 07:37:53;;;;;;;5.13;3.90;;;;;;;5.07;100.00;100567.97;5079559;28;20581;-81
2023/12/16 07:40:20;;;;;;;5.97;4.60;;;;;;;5.07;100.00;100572.38;5078043;28;20213;-81
2023/12/16 07:42:46;;;;;;;7.97;4.93;;;;;;;5.05;100.00;100569.75;5078886;28;20237;-80
2023/12/16 07:45:13;;;;;;;7.07;4.93;;;;;;;5.11;100.00;100580.19;5078385;28;20202;-81
2023/12/16 07:47:39;;;;;;;5.47;4.30;;;;;;;5.13;100.00;100577.56;5080065;28;20210;-80
2023/12/16 07:50:10;;;;;;;7.57;5.13;;;;;;;5.20;100.00;100585.31;5079831;28;20215;-80
2023/12/16 07:52:36;;;;;;;6.90;4.83;;;;;;;5.21;100.00;100591.44;5079559;28;20230;-80
2023/12/16 07:55:04;;;;;;;7.53;5.03;;;;;;;5.26;100.00;100600.16;5078687;28;20236;-80
2023/12/16 07:57:30;;;;;;;6.43;5.20;;;;;;;5.29;100.00;100594.84;5079035;28;20252;-80
2023/12/16 07:59:57;;;;;;;8.53;5.50;;;;;;;5.30;100.00;100602.72;5078010;28;20220;-80
2023/12/16 08:02:23;;;;;;;7.47;5.50;;;;;;;5.35;100.00;100600.94;5077800;28;20238;-80
2023/12/16 08:04:52;;;;;;;7.57;6.03;;;;;;;5.35;100.00;100605.28;5077503;28;20211;-80
2023/12/16 08:07:20;;;;;;;12.70;7.20;;;;;;;5.34;100.00;100609.69;5078428;28;20210;-80
2023/12/16 08:09:46;;;;;;;12.03;7.87;;;;;;;5.38;100.00;100615.78;5078223;28;20589;-79
2023/12/16 08:12:13;;;;;;;10.33;7.13;;;;;;;5.38;100.00;100615.78;5079019;28;20257;-80
2023/12/16 08:14:39;;;;;;;10.63;7.30;;;;;;;5.44;100.00;100620.97;5078098;28;20540;-79
2023/12/16 08:17:06;;;;;;;9.03;6.50;;;;;;;5.45;100.00;100623.53;5078420;28;20222;-80
2023/12/16 08:19:33;;;;;;;8.93;6.93;;;;;;;5.45;100.00;100618.31;5078362;28;20253;-80
2023/12/16 08:22:00;;;;;;;8.47;6.13;;;;;;;5.44;100.00;100627.06;5084972;28;20232;-80
2023/12/16 08:24:30;;;;;;;8.70;6.43;;;;;;;5.46;100.00;100624.44;5086421;28;20233;-79
2023/12/16 08:26:56;;;;;;;9.27;6.23;;;;;;;5.51;100.00;100623.50;5080205;28;20221;-79
2023/12/16 08:29:23;;;;;;;8.90;6.30;;;;;;;5.55;100.00;100630.44;5078147;28;20206;-80
2023/12/16 08:31:49;;;;;;;8.83;6.00;;;;;;;5.59;100.00;100629.56;5079149;28;20233;-79
2023/12/16 08:34:15;;;;;;;6.63;5.23;;;;;;;5.65;100.00;100633.84;5078950;28;20248;-80
2023/12/16 08:36:43;;;;;;;6.47;4.80;;;;;;;5.68;100.00;100637.31;5077174;28;20215;-80
2023/12/16 08:39:09;;;;;;;8.60;5.70;;;;;;;5.67;100.00;100642.59;5076870;28;20209;-80
2023/12/16 08:41:37;;;;;;;9.93;6.33;;;;;;;5.73;100.00;100640.75;5076300;28;20234;-80
2023/12/16 08:44:04;;;;;;;8.43;6.07;;;;;;;5.80;100.00;100639.00;5076642;28;20221;-80
2023/12/16 08:46:30;;;;;;;6.93;5.43;;;;;;;5.83;100.00;100652.06;5077011;28;20205;-80
2023/12/16 08:48:56;;;;;;;7.73;5.47;;;;;;;5.83;100.00;100652.94;5076619;28;20224;-80
2023/12/16 08:51:23;;;;;;;8.23;6.23;;;;;;;5.88;100.00;100655.53;5077524;28;20241;-79
2023/12/16 08:53:52;;;;;;;7.60;5.27;;;;;;;5.92;100.00;100652.84;5075678;28;20211;-79
2023/12/16 08:56:18;;;;;;;7.40;5.97;;;;;;;5.96;100.00;100654.56;5076519;28;20213;-80
2023/12/16 08:58:47;;;;;;;8.73;5.63;;;;;;;5.97;100.00;100651.03;5076387;28;20680;-78
2023/12/16 09:01:13;;;;;;;7.83;6.10;;;;;;;5.98;100.00;100649.31;5075851;28;20231;-79
2023/12/16 09:03:42;;;;;;;10.13;6.53;;;;;;;6.06;100.00;100653.59;5075298;28;20228;-82
2023/12/16 09:06:09;;;;;;;8.53;5.67;;;;;;;6.08;100.00;100654.41;5076043;28;20255;-77
2023/12/16 09:08:35;;;;;;;8.30;6.53;;;;;;;6.06;100.00;100653.59;5076118;28;20215;-77
2023/12/16 09:11:02;;;;;;;8.83;5.80;;;;;;;6.13;100.00;100664.88;5075711;28;20207;-78
2023/12/16 09:13:28;;;;;;;7.43;5.90;;;;;;;6.20;100.00;100669.16;5076667;28;20253;-78
2023/12/16 09:15:56;;;;;;;8.27;5.60;;;;;;;6.23;100.00;100675.25;5076668;28;20209;-78
2023/12/16 09:18:23;;;;;;;8.40;6.00;;;;;;;6.28;100.00;100683.94;5076329;28;20274;-77
2023/12/16 09:20:49;;;;;;;8.13;5.90;;;;;;;6.34;100.00;100683.88;5071767;28;20209;-78
2023/12/16 09:23:16;;;;;;;8.23;5.83;;;;;;;6.33;100.00;100676.88;5074651;28;20207;-78
2023/12/16 09:25:41;;;;;;;7.93;5.30;;;;;;;6.41;100.00;100684.69;5072705;28;20207;-77
2023/12/16 09:28:08;;;;;;;7.53;5.73;;;;;;;6.44;100.00;100684.63;5072371;28;20206;-79
2023/12/16 09:30:35;;;;;;;8.00;5.97;;;;;;;6.50;100.00;100695.94;5077182;28;20782;-77
2023/12/16 09:33:04;;;;;;;8.47;6.37;;;;;;;6.52;100.00;100691.53;5072955;28;20235;-77
2023/12/16 09:35:30;;;;;;;8.10;5.90;;;;;;;6.62;100.00;100684.38;5070910;28;20319;-77
2023/12/16 09:37:57;;;;;;;8.73;5.80;;;;;;;6.69;100.00;100692.19;5071529;28;20219;-77
2023/12/16 09:40:23;;;;;;;8.77;5.83;;;;;;;6.67;100.00;100693.09;5076398;28;20215;-80
2023/12/16 09:42:52;;;;;;;6.97;5.47;;;;;;;6.64;100.00;100688.75;5078442;28;20231;-79
2023/12/16 09:45:19;;;;;;;8.87;6.27;;;;;;;6.72;100.00;100686.03;5078181;28;20574;-79
2023/12/16 09:47:46;;;;;;;7.40;5.37;;;;;;;6.72;100.00;100684.25;5079641;28;20203;-79
2023/12/16 09:50:15;;;;;;;7.00;4.97;;;;;;;6.71;100.00;100682.50;5082767;28;20225;-79
2023/12/16 09:52:41;;;;;;;9.40;6.23;;;;;;;6.72;100.00;100684.25;5083298;28;20234;-79
2023/12/16 09:55:09;;;;;;;6.27;5.47;;;;;;;6.78;100.00;100686.78;5082159;28;20225;-80
2023/12/16 09:57:37;;;;;;;6.77;5.70;;;;;;;6.85;100.00;100687.59;5080192;28;20226;-80
2023/12/16 10:00:05;;;;;;;7.73;5.70;;;;;;;6.90;100.00;100684.00;5079924;28;20211;-81
2023/12/16 10:02:31;;;;;;;8.30;5.57;;;;;;;6.90;100.00;100681.34;5086302;28;20234;-79
2023/12/16 10:04:59;;;;;;;7.67;5.57;;;;;;;6.90;100.00;100681.34;5086780;28;20203;-80
2023/12/16 10:07:27;;;;;;;7.00;5.63;;;;;;;6.95;100.00;100678.69;5086759;28;20298;-81
2023/12/16 10:09:54;;;;;;;8.20;6.13;;;;;;;6.93;100.00;100675.19;5087255;28;20568;-80
2023/12/16 10:12:21;;;;;;;7.73;5.83;;;;;;;7.02;100.00;100678.56;5083972;28;20235;-83
2023/12/16 10:14:48;;;;;;;7.63;5.33;;;;;;;7.09;100.00;100674.09;5084402;28;20208;-81
2023/12/16 10:17:16;;;;;;;6.10;4.93;;;;;;;7.09;100.00;100676.72;5085920;28;20622;-79
2023/12/16 10:19:44;;;;;;;8.33;5.53;;;;;;;7.17;100.00;100669.56;5087719;28;20323;-79
2023/12/16 10:22:11;;;;;;;6.63;5.33;;;;;;;7.15;100.00;100661.69;5091389;28;20287;-81
2023/12/16 10:24:41;;;;;;;6.30;5.13;;;;;;;7.15;100.00;100672.22;5093091;28;20238;-79
2023/12/16 10:27:08;;;;;;;7.13;5.40;;;;;;;7.13;100.00;100668.75;5093318;28;20210;-79
2023/12/16 10:29:35;;;;;;;7.27;5.80;;;;;;;7.20;100.00;100664.28;5092614;28;20265;-80
2023/12/16 10:32:02;;;;;;;6.50;4.72;;;;;;;7.20;100.00;100659.88;5092700;28;20113;-79
2023/12/16 10:34:29;;;;;;;6.57;5.33;;;;;;;7.22;100.00;100655.47;5091361;28;20222;-79
2023/12/16 10:37:04;;;;;;;8.67;6.00;;;;;;;7.23;100.00;100665.09;5092901;28;20209;-80
2023/12/16 10:39:30;;;;;;;9.67;6.37;;;;;;;7.25;100.00;100665.94;5092563;28;20227;-80
2023/12/16 10:41:58;;;;;;;6.77;5.47;;;;;;;7.22;100.00;100655.47;5091770;28;20226;-80
2023/12/16 10:44:25;;;;;;;6.20;4.70;;;;;;;7.22;100.00;100653.69;5092315;28;20201;-80
2023/12/16 10:46:53;;;;;;;7.43;4.83;;;;;;;7.16;100.00;100647.69;5091941;28;20214;-80
2023/12/16 10:49:27;;;;;;;6.57;5.30;;;;;;;7.22;100.00;100647.56;5093175;28;20238;-80
2023/12/16 10:52:03;;;;;;;7.03;5.27;;;;;;;7.19;100.00;100644.97;5091001;28;20258;-79
2023/12/16 10:54:37;;;;;;;6.93;5.13;;;;;;;7.17;100.00;100644.16;5091672;28;20207;-79
2023/12/16 10:57:18;;;;;;;6.47;4.80;;;;;;;7.17;100.00;100636.25;5090879;28;20223;-79
2023/12/16 10:59:55;;;;;;;8.57;5.37;;;;;;;7.17;100.00;100633.63;5091007;28;20497;-79
2023/12/16 11:02:26;;;;;;;6.90;5.30;;;;;;;7.13;100.00;100634.56;5088558;28;20237;-79
2023/12/16 11:05:08;;;;;;;6.00;5.07;;;;;;;7.21;100.00;100631.81;5083301;28;20214;-80
2023/12/16 11:07:38;;;;;;;7.90;5.43;;;;;;;7.20;100.00;100632.72;5082183;28;20218;-80
2023/12/16 11:10:06;;;;;;;9.47;6.03;;;;;;;7.29;100.00;100617.66;5080703;28;20880;-80
2023/12/16 11:12:35;;;;;;;8.93;5.10;;;;;;;7.25;100.00;100615.94;5079157;28;20231;-79
2023/12/16 11:15:06;;;;;;;9.10;5.83;;;;;;;7.14;100.00;100617.03;5079177;28;20208;-79
2023/12/16 11:17:42;;;;;;;9.53;5.77;;;;;;;7.07;100.00;100611.00;5082755;28;20208;-79
2023/12/16 11:20:14;;;;;;;7.47;5.60;;;;;;;7.03;100.00;100614.53;5084470;28;20615;-80
2023/12/16 11:22:46;;;;;;;8.83;5.43;;;;;;;6.99;100.00;100623.41;5089830;28;20220;-79